sensor_id;sensor_type;location;lat;lon;timestamp;P1;P2;P0
35654;PMS1003;21773;50.010;19.972;2023-07-24T00:00:11;8.00;8.00;6.25
35654;PMS1003;21773;50.010;19.972;2023-07-24T00:03:15;10.00;10.00;9.50
35654;PMS1003;21773;50.010;19.972;2023-07-24T00:06:18;6.00;6.00;5.60
35654;PMS1003;21773;50.010;19.972;2023-07-24T00:09:21;6.00;5.00;4.60
35654;PMS1003;21773;50.010;19.972;2023-07-24T00:12:24;5.00;5.00;4.40
35654;PMS1003;21773;50.010;19.972;2023-07-24T00:15:29;8.00;7.20;6.20
35654;PMS1003;21773;50.010;19.972;2023-07-24T00:18:33;6.00;5.75;5.00
35654;PMS1003;21773;50.010;19.972;2023-07-24T00:21:36;6.00;6.00;5.00
35654;PMS1003;21773;50.010;19.972;2023-07-24T00:24:39;4.60;4.00;4.00
35654;PMS1003;21773;50.010;19.972;2023-07-24T00:27:42;6.00;5.00;5.00
35654;PMS1003;21773;50.010;19.972;2023-07-24T00:30:48;8.50;7.50;6.50
35654;PMS1003;21773;50.010;19.972;2023-07-24T00:33:51;8.00;8.00;7.00
35654;PMS1003;21773;50.010;19.972;2023-07-24T00:36:55;7.60;7.00;6.60
35654;PMS1003;21773;50.010;19.972;2023-07-24T00:39:58;6.00;5.40;5.00
35654;PMS1003;21773;50.010;19.972;2023-07-24T00:43:01;4.00;3.60;2.60
35654;PMS1003;21773;50.010;19.972;2023-07-24T00:46:06;8.00;7.50;7.00
35654;PMS1003;21773;50.010;19.972;2023-07-24T00:49:09;7.00;6.60;6.60
35654;PMS1003;21773;50.010;19.972;2023-07-24T00:52:13;7.40;7.40;6.40
35654;PMS1003;21773;50.010;19.972;2023-07-24T00:55:18;6.00;6.00;5.00
35654;PMS1003;21773;50.010;19.972;2023-07-24T00:58:22;6.00;6.00;5.00
35654;PMS1003;21773;50.010;19.972;2023-07-24T01:01:26;7.80;7.40;6.40
35654;PMS1003;21773;50.010;19.972;2023-07-24T01:04:31;6.00;5.00;4.67
35654;PMS1003;21773;50.010;19.972;2023-07-24T01:07:34;5.00;4.80;4.40
35654;PMS1003;21773;50.010;19.972;2023-07-24T01:10:37;7.80;7.80;6.80
35654;PMS1003;21773;50.010;19.972;2023-07-24T01:13:41;6.75;5.50;4.75
35654;PMS1003;21773;50.010;19.972;2023-07-24T01:16:53;6.00;5.80;5.00
35654;PMS1003;21773;50.010;19.972;2023-07-24T01:19:58;7.40;6.00;5.00
35654;PMS1003;21773;50.010;19.972;2023-07-24T01:23:10;6.20;6.20;5.80
35654;PMS1003;21773;50.010;19.972;2023-07-24T01:26:24;6.20;6.00;6.00
35654;PMS1003;21773;50.010;19.972;2023-07-24T01:29:29;7.40;7.40;7.00
35654;PMS1003;21773;50.010;19.972;2023-07-24T01:32:32;7.00;6.40;6.00
35654;PMS1003;21773;50.010;19.972;2023-07-24T01:35:35;7.50;7.00;6.50
35654;PMS1003;21773;50.010;19.972;2023-07-24T01:38:40;8.40;7.40;7.40
35654;PMS1003;21773;50.010;19.972;2023-07-24T01:41:46;8.00;7.00;6.00
35654;PMS1003;21773;50.010;19.972;2023-07-24T01:44:53;6.20;5.20;5.00
35654;PMS1003;21773;50.010;19.972;2023-07-24T01:47:57;6.50;5.50;5.50
35654;PMS1003;21773;50.010;19.972;2023-07-24T01:51:01;6.20;6.00;5.00
35654;PMS1003;21773;50.010;19.972;2023-07-24T01:54:04;8.40;6.40;6.00
35654;PMS1003;21773;50.010;19.972;2023-07-24T01:57:09;8.20;7.20;6.40
35654;PMS1003;21773;50.010;19.972;2023-07-24T02:00:12;6.60;5.60;5.00
35654;PMS1003;21773;50.010;19.972;2023-07-24T02:03:15;6.20;6.00;5.80
35654;PMS1003;21773;50.010;19.972;2023-07-24T02:06:19;6.00;5.25;5.00
35654;PMS1003;21773;50.010;19.972;2023-07-24T02:09:22;5.25;5.25;5.00
35654;PMS1003;21773;50.010;19.972;2023-07-24T02:12:26;7.40;6.40;6.40
35654;PMS1003;21773;50.010;19.972;2023-07-24T02:15:30;8.00;7.75;6.25
35654;PMS1003;21773;50.010;19.972;2023-07-24T02:18:33;7.20;7.00;6.00
35654;PMS1003;21773;50.010;19.972;2023-07-24T02:21:36;7.00;6.00;5.00
35654;PMS1003;21773;50.010;19.972;2023-07-24T02:24:39;4.75;4.75;4.75
35654;PMS1003;21773;50.010;19.972;2023-07-24T02:27:44;6.00;6.00;5.40
35654;PMS1003;21773;50.010;19.972;2023-07-24T02:30:47;6.80;5.80;5.00
35654;PMS1003;21773;50.010;19.972;2023-07-24T02:33:51;7.40;6.40;6.00
35654;PMS1003;21773;50.010;19.972;2023-07-24T02:36:54;8.00;6.33;5.33
35654;PMS1003;21773;50.010;19.972;2023-07-24T02:39:58;5.00;5.00;5.00
35654;PMS1003;21773;50.010;19.972;2023-07-24T02:43:03;7.00;7.00;6.00
35654;PMS1003;21773;50.010;19.972;2023-07-24T02:46:06;5.00;4.20;3.80
35654;PMS1003;21773;50.010;19.972;2023-07-24T02:49:10;7.00;7.00;6.00
35654;PMS1003;21773;50.010;19.972;2023-07-24T02:52:13;6.00;5.00;5.00
35654;PMS1003;21773;50.010;19.972;2023-07-24T02:55:16;7.00;7.00;6.00
35654;PMS1003;21773;50.010;19.972;2023-07-24T02:58:21;7.60;7.00;6.00
35654;PMS1003;21773;50.010;19.972;2023-07-24T03:01:25;6.67;5.67;5.00
35654;PMS1003;21773;50.010;19.972;2023-07-24T03:04:29;6.20;6.00;5.00
35654;PMS1003;21773;50.010;19.972;2023-07-24T03:07:35;8.20;7.20;6.60
35654;PMS1003;21773;50.010;19.972;2023-07-24T03:10:39;8.00;8.00;7.00
35654;PMS1003;21773;50.010;19.972;2023-07-24T03:13:45;7.00;5.50;5.00
35654;PMS1003;21773;50.010;19.972;2023-07-24T03:16:49;8.40;7.00;6.00
35654;PMS1003;21773;50.010;19.972;2023-07-24T03:19:53;6.00;5.00;5.00
35654;PMS1003;21773;50.010;19.972;2023-07-24T03:22:57;8.00;7.50;6.00
35654;PMS1003;21773;50.010;19.972;2023-07-24T03:26:00;5.00;5.00;4.33
35654;PMS1003;21773;50.010;19.972;2023-07-24T03:29:05;8.00;7.00;6.00
35654;PMS1003;21773;50.010;19.972;2023-07-24T03:32:08;7.00;6.00;6.00
35654;PMS1003;21773;50.010;19.972;2023-07-24T03:35:11;8.00;7.00;6.00
35654;PMS1003;21773;50.010;19.972;2023-07-24T03:38:15;6.00;6.00;5.00
35654;PMS1003;21773;50.010;19.972;2023-07-24T03:41:18;6.80;6.80;6.00
35654;PMS1003;21773;50.010;19.972;2023-07-24T03:44:23;7.75;7.00;6.25
35654;PMS1003;21773;50.010;19.972;2023-07-24T03:47:26;8.00;7.00;6.20
35654;PMS1003;21773;50.010;19.972;2023-07-24T03:50:30;5.40;5.40;4.80
35654;PMS1003;21773;50.010;19.972;2023-07-24T03:53:33;9.00;9.00;8.00
35654;PMS1003;21773;50.010;19.972;2023-07-24T03:56:36;9.00;8.00;7.00
35654;PMS1003;21773;50.010;19.972;2023-07-24T03:59:41;5.50;5.00;5.00
35654;PMS1003;21773;50.010;19.972;2023-07-24T04:02:44;9.40;8.40;7.40
35654;PMS1003;21773;50.010;19.972;2023-07-24T04:05:48;7.33;6.33;5.33
35654;PMS1003;21773;50.010;19.972;2023-07-24T04:08:51;7.60;6.00;5.60
35654;PMS1003;21773;50.010;19.972;2023-07-24T04:11:54;7.00;6.00;5.00
35654;PMS1003;21773;50.010;19.972;2023-07-24T04:14:59;7.00;6.67;5.67
35654;PMS1003;21773;50.010;19.972;2023-07-24T04:18:02;9.00;7.75;6.00
35654;PMS1003;21773;50.010;19.972;2023-07-24T04:21:05;7.60;7.60;6.60
35654;PMS1003;21773;50.010;19.972;2023-07-24T04:24:08;7.00;7.00;6.60
35654;PMS1003;21773;50.010;19.972;2023-07-24T04:27:12;8.00;7.00;6.00
35654;PMS1003;21773;50.010;19.972;2023-07-24T04:30:16;11.00;10.60;9.60
35654;PMS1003;21773;50.010;19.972;2023-07-24T04:33:20;5.80;5.00;4.80
35654;PMS1003;21773;50.010;19.972;2023-07-24T04:36:23;7.20;7.00;6.60
35654;PMS1003;21773;50.010;19.972;2023-07-24T04:39:26;10.00;8.40;7.00
35654;PMS1003;21773;50.010;19.972;2023-07-24T04:42:29;6.60;6.60;6.00
35654;PMS1003;21773;50.010;19.972;2023-07-24T04:45:34;6.60;6.00;5.60
35654;PMS1003;21773;50.010;19.972;2023-07-24T04:48:38;9.40;7.40;6.40
35654;PMS1003;21773;50.010;19.972;2023-07-24T04:51:41;10.00;8.33;8.00
35654;PMS1003;21773;50.010;19.972;2023-07-24T04:54:44;7.60;7.60;6.60
35654;PMS1003;21773;50.010;19.972;2023-07-24T04:57:47;7.60;7.00;6.20
35654;PMS1003;21773;50.010;19.972;2023-07-24T05:00:52;6.80;6.80;6.20
35654;PMS1003;21773;50.010;19.972;2023-07-24T05:03:56;7.20;7.20;6.60
35654;PMS1003;21773;50.010;19.972;2023-07-24T05:06:59;5.75;5.25;4.25
35654;PMS1003;21773;50.010;19.972;2023-07-24T05:10:02;6.00;5.00;4.00
35654;PMS1003;21773;50.010;19.972;2023-07-24T05:13:06;7.00;7.00;6.40
35654;PMS1003;21773;50.010;19.972;2023-07-24T05:16:14;8.00;7.40;6.40
35654;PMS1003;21773;50.010;19.972;2023-07-24T05:19:18;7.40;6.80;6.00
35654;PMS1003;21773;50.010;19.972;2023-07-24T05:22:21;6.60;6.00;6.00
35654;PMS1003;21773;50.010;19.972;2023-07-24T05:25:25;7.00;6.60;5.00
35654;PMS1003;21773;50.010;19.972;2023-07-24T05:28:28;8.00;6.60;5.60
35654;PMS1003;21773;50.010;19.972;2023-07-24T05:31:35;8.00;7.00;5.60
35654;PMS1003;21773;50.010;19.972;2023-07-24T05:34:38;5.00;5.00;3.33
35654;PMS1003;21773;50.010;19.972;2023-07-24T05:37:42;6.00;6.00;5.00
35654;PMS1003;21773;50.010;19.972;2023-07-24T05:40:46;6.60;6.00;6.00
35654;PMS1003;21773;50.010;19.972;2023-07-24T05:43:56;6.00;5.00;4.60
35654;PMS1003;21773;50.010;19.972;2023-07-24T05:47:01;7.00;6.00;4.75
35654;PMS1003;21773;50.010;19.972;2023-07-24T05:50:05;6.40;5.00;5.00
35654;PMS1003;21773;50.010;19.972;2023-07-24T05:53:09;6.40;6.40;5.60
35654;PMS1003;21773;50.010;19.972;2023-07-24T05:56:13;7.00;6.00;5.00
35654;PMS1003;21773;50.010;19.972;2023-07-24T05:59:16;6.50;6.00;5.00
35654;PMS1003;21773;50.010;19.972;2023-07-24T06:02:20;5.80;5.00;4.00
35654;PMS1003;21773;50.010;19.972;2023-07-24T06:05:24;8.40;8.00;6.40
35654;PMS1003;21773;50.010;19.972;2023-07-24T06:08:27;6.00;5.00;5.00
35654;PMS1003;21773;50.010;19.972;2023-07-24T06:11:30;7.00;6.80;5.80
35654;PMS1003;21773;50.010;19.972;2023-07-24T06:14:33;7.00;6.00;5.50
35654;PMS1003;21773;50.010;19.972;2023-07-24T06:17:38;9.40;8.40;7.60
35654;PMS1003;21773;50.010;19.972;2023-07-24T06:20:41;10.00;8.00;6.80
35654;PMS1003;21773;50.010;19.972;2023-07-24T06:23:44;8.75;8.75;7.00
35654;PMS1003;21773;50.010;19.972;2023-07-24T06:26:47;10.40;8.40;7.00
35654;PMS1003;21773;50.010;19.972;2023-07-24T06:29:51;9.00;7.40;7.00
35654;PMS1003;21773;50.010;19.972;2023-07-24T06:33:07;7.00;7.00;6.00
35654;PMS1003;21773;50.010;19.972;2023-07-24T06:36:10;9.00;8.00;6.75
35654;PMS1003;21773;50.010;19.972;2023-07-24T06:39:14;8.00;7.00;6.00
35654;PMS1003;21773;50.010;19.972;2023-07-24T06:42:17;10.20;8.00;7.60
35654;PMS1003;21773;50.010;19.972;2023-07-24T06:45:20;9.40;9.00;8.00
35654;PMS1003;21773;50.010;19.972;2023-07-24T06:48:25;8.40;8.00;7.00
35654;PMS1003;21773;50.010;19.972;2023-07-24T06:51:28;7.00;5.60;5.00
35654;PMS1003;21773;50.010;19.972;2023-07-24T06:54:31;6.75;6.75;5.75
35654;PMS1003;21773;50.010;19.972;2023-07-24T06:57:34;8.00;8.00;6.40
35654;PMS1003;21773;50.010;19.972;2023-07-24T07:00:37;6.00;6.00;5.60
35654;PMS1003;21773;50.010;19.972;2023-07-24T07:03:42;7.00;6.00;5.00
35654;PMS1003;21773;50.010;19.972;2023-07-24T07:06:45;6.60;6.00;5.00
35654;PMS1003;21773;50.010;19.972;2023-07-24T07:09:49;7.00;5.80;4.80
35654;PMS1003;21773;50.010;19.972;2023-07-24T07:12:52;8.50;7.00;6.00
35654;PMS1003;21773;50.010;19.972;2023-07-24T07:15:56;8.00;7.00;5.60
35654;PMS1003;21773;50.010;19.972;2023-07-24T07:19:01;6.80;6.00;5.00
35654;PMS1003;21773;50.010;19.972;2023-07-24T07:22:05;8.00;7.00;6.50
35654;PMS1003;21773;50.010;19.972;2023-07-24T07:25:08;8.00;7.20;5.80
35654;PMS1003;21773;50.010;19.972;2023-07-24T07:28:12;9.00;9.00;8.00
35654;PMS1003;21773;50.010;19.972;2023-07-24T07:31:15;7.00;7.00;6.00
35654;PMS1003;21773;50.010;19.972;2023-07-24T07:34:20;8.00;7.00;6.00
35654;PMS1003;21773;50.010;19.972;2023-07-24T07:37:24;10.00;9.00;8.00
35654;PMS1003;21773;50.010;19.972;2023-07-24T07:40:28;9.00;8.00;7.00
35654;PMS1003;21773;50.010;19.972;2023-07-24T07:43:31;9.40;7.00;6.00
35654;PMS1003;21773;50.010;19.972;2023-07-24T07:46:35;9.00;9.00;8.50
35654;PMS1003;21773;50.010;19.972;2023-07-24T07:49:39;9.40;9.00;8.00
35654;PMS1003;21773;50.010;19.972;2023-07-24T07:52:43;9.00;8.40;8.00
35654;PMS1003;21773;50.010;19.972;2023-07-24T07:55:54;8.80;8.40;6.80
35654;PMS1003;21773;50.010;19.972;2023-07-24T07:58:58;9.00;8.00;7.00
35654;PMS1003;21773;50.010;19.972;2023-07-24T08:02:01;7.00;6.50;5.50
35654;PMS1003;21773;50.010;19.972;2023-07-24T08:05:06;8.00;6.75;6.00
35654;PMS1003;21773;50.010;19.972;2023-07-24T08:08:20;8.00;7.00;6.00
35654;PMS1003;21773;50.010;19.972;2023-07-24T08:11:24;7.00;6.00;5.75
35654;PMS1003;21773;50.010;19.972;2023-07-24T08:14:27;8.00;7.60;6.60
35654;PMS1003;21773;50.010;19.972;2023-07-24T08:17:31;8.00;8.00;6.00
35654;PMS1003;21773;50.010;19.972;2023-07-24T08:20:36;9.00;9.00;7.00
35654;PMS1003;21773;50.010;19.972;2023-07-24T08:23:40;7.75;6.00;5.75
35654;PMS1003;21773;50.010;19.972;2023-07-24T08:26:43;8.00;6.00;5.00
35654;PMS1003;21773;50.010;19.972;2023-07-24T08:29:50;6.00;6.00;5.40
35654;PMS1003;21773;50.010;19.972;2023-07-24T08:32:53;6.20;6.20;5.20
35654;PMS1003;21773;50.010;19.972;2023-07-24T08:35:59;8.50;8.00;6.50
35654;PMS1003;21773;50.010;19.972;2023-07-24T08:39:04;8.00;6.00;6.00
35654;PMS1003;21773;50.010;19.972;2023-07-24T08:42:10;8.20;7.20;6.00
35654;PMS1003;21773;50.010;19.972;2023-07-24T08:45:14;8.00;7.00;6.00
35654;PMS1003;21773;50.010;19.972;2023-07-24T08:48:18;7.00;6.50;6.00
35654;PMS1003;21773;50.010;19.972;2023-07-24T08:51:26;7.00;6.00;5.50
35654;PMS1003;21773;50.010;19.972;2023-07-24T08:54:30;7.60;6.60;6.00
35654;PMS1003;21773;50.010;19.972;2023-07-24T08:57:33;10.00;8.00;7.20
35654;PMS1003;21773;50.010;19.972;2023-07-24T09:00:38;8.00;8.00;6.40
35654;PMS1003;21773;50.010;19.972;2023-07-24T09:03:41;7.40;6.00;5.00
35654;PMS1003;21773;50.010;19.972;2023-07-24T09:06:46;7.00;6.20;6.00
35654;PMS1003;21773;50.010;19.972;2023-07-24T09:09:49;8.00;8.00;7.00
35654;PMS1003;21773;50.010;19.972;2023-07-24T09:12:52;7.75;7.50;6.50
35654;PMS1003;21773;50.010;19.972;2023-07-24T09:15:56;8.60;8.00;6.80
35654;PMS1003;21773;50.010;19.972;2023-07-24T09:19:00;7.00;6.00;5.00
35654;PMS1003;21773;50.010;19.972;2023-07-24T09:22:14;7.75;6.75;6.00
35654;PMS1003;21773;50.010;19.972;2023-07-24T09:25:29;8.00;7.40;6.00
35654;PMS1003;21773;50.010;19.972;2023-07-24T09:28:32;7.25;7.00;5.25
35654;PMS1003;21773;50.010;19.972;2023-07-24T09:31:36;6.40;6.00;5.40
35654;PMS1003;21773;50.010;19.972;2023-07-24T09:34:41;7.00;6.00;5.00
35654;PMS1003;21773;50.010;19.972;2023-07-24T09:37:46;7.00;7.00;6.00
35654;PMS1003;21773;50.010;19.972;2023-07-24T09:40:49;8.60;7.60;6.00
35654;PMS1003;21773;50.010;19.972;2023-07-24T09:43:57;7.00;7.00;6.00
35654;PMS1003;21773;50.010;19.972;2023-07-24T09:47:01;9.00;7.00;5.00
35654;PMS1003;21773;50.010;19.972;2023-07-24T09:50:25;8.40;7.00;6.00
35654;PMS1003;21773;50.010;19.972;2023-07-24T09:53:32;8.00;8.00;6.40
35654;PMS1003;21773;50.010;19.972;2023-07-24T09:56:37;6.60;6.00;5.00
35654;PMS1003;21773;50.010;19.972;2023-07-24T09:59:52;10.00;8.50;7.00
35654;PMS1003;21773;50.010;19.972;2023-07-24T10:02:57;10.00;10.00;9.00
35654;PMS1003;21773;50.010;19.972;2023-07-24T10:06:01;8.00;7.50;6.50
35654;PMS1003;21773;50.010;19.972;2023-07-24T10:09:06;12.80;11.00;9.00
35654;PMS1003;21773;50.010;19.972;2023-07-24T10:12:10;13.00;10.00;7.00
35654;PMS1003;21773;50.010;19.972;2023-07-24T10:15:13;6.00;6.00;5.00
35654;PMS1003;21773;50.010;19.972;2023-07-24T10:18:17;8.60;7.00;6.00
35654;PMS1003;21773;50.010;19.972;2023-07-24T10:21:27;9.40;9.00;7.40
35654;PMS1003;21773;50.010;19.972;2023-07-24T10:24:33;8.20;7.20;6.20
35654;PMS1003;21773;50.010;19.972;2023-07-24T10:27:43;9.00;8.50;7.00
35654;PMS1003;21773;50.010;19.972;2023-07-24T10:30:54;9.00;8.00;7.00
35654;PMS1003;21773;50.010;19.972;2023-07-24T10:34:03;10.40;9.00;7.00
35654;PMS1003;21773;50.010;19.972;2023-07-24T10:37:07;8.80;6.00;5.00
35654;PMS1003;21773;50.010;19.972;2023-07-24T10:40:20;9.25;8.00;6.00
35654;PMS1003;21773;50.010;19.972;2023-07-24T10:43:23;9.00;7.00;6.00
35654;PMS1003;21773;50.010;19.972;2023-07-24T10:46:35;10.00;8.00;7.00
35654;PMS1003;21773;50.010;19.972;2023-07-24T10:49:42;9.00;9.00;8.00
35654;PMS1003;21773;50.010;19.972;2023-07-24T10:52:50;9.00;8.00;7.00
35654;PMS1003;21773;50.010;19.972;2023-07-24T10:55:55;8.40;7.60;6.00
35654;PMS1003;21773;50.010;19.972;2023-07-24T10:59:02;11.00;9.00;8.00
35654;PMS1003;21773;50.010;19.972;2023-07-24T11:02:06;8.00;7.75;6.00
35654;PMS1003;21773;50.010;19.972;2023-07-24T11:05:11;8.40;8.00;7.00
35654;PMS1003;21773;50.010;19.972;2023-07-24T11:08:17;7.50;7.00;6.00
35654;PMS1003;21773;50.010;19.972;2023-07-24T11:11:23;9.00;8.75;7.00
35654;PMS1003;21773;50.010;19.972;2023-07-24T11:14:31;7.40;7.00;6.80
35654;PMS1003;21773;50.010;19.972;2023-07-24T11:17:34;11.00;10.00;7.00
35654;PMS1003;21773;50.010;19.972;2023-07-24T11:20:43;10.00;8.00;7.00
35654;PMS1003;21773;50.010;19.972;2023-07-24T11:23:48;11.00;9.00;8.00
35654;PMS1003;21773;50.010;19.972;2023-07-24T11:26:54;8.00;7.60;6.00
35654;PMS1003;21773;50.010;19.972;2023-07-24T11:29:57;9.00;8.00;6.00
35654;PMS1003;21773;50.010;19.972;2023-07-24T11:33:02;10.00;8.40;6.00
35654;PMS1003;21773;50.010;19.972;2023-07-24T11:36:07;11.50;10.00;7.00
35654;PMS1003;21773;50.010;19.972;2023-07-24T11:39:11;10.67;9.00;7.00
35654;PMS1003;21773;50.010;19.972;2023-07-24T11:42:15;9.20;8.20;7.20
35654;PMS1003;21773;50.010;19.972;2023-07-24T11:45:18;8.00;7.00;6.00
35654;PMS1003;21773;50.010;19.972;2023-07-24T11:48:23;9.00;8.00;6.00
35654;PMS1003;21773;50.010;19.972;2023-07-24T11:51:27;10.00;8.50;7.00
35654;PMS1003;21773;50.010;19.972;2023-07-24T11:54:33;10.00;8.00;6.00
35654;PMS1003;21773;50.010;19.972;2023-07-24T11:57:38;10.33;8.00;7.00
35654;PMS1003;21773;50.010;19.972;2023-07-24T12:00:42;11.00;9.00;7.00
35654;PMS1003;21773;50.010;19.972;2023-07-24T12:03:45;10.00;10.00;7.00
35654;PMS1003;21773;50.010;19.972;2023-07-24T12:06:49;8.00;7.50;7.00
35654;PMS1003;21773;50.010;19.972;2023-07-24T12:09:53;11.00;10.00;8.40
35654;PMS1003;21773;50.010;19.972;2023-07-24T12:12:59;8.00;7.00;5.00
35654;PMS1003;21773;50.010;19.972;2023-07-24T12:16:02;8.20;8.00;6.20
35654;PMS1003;21773;50.010;19.972;2023-07-24T12:19:06;10.00;9.40;7.00
35654;PMS1003;21773;50.010;19.972;2023-07-24T12:22:09;10.00;9.00;7.00
35654;PMS1003;21773;50.010;19.972;2023-07-24T12:25:12;10.50;9.50;8.00
35654;PMS1003;21773;50.010;19.972;2023-07-24T12:28:17;9.75;9.00;7.00
35654;PMS1003;21773;50.010;19.972;2023-07-24T12:31:20;11.00;9.50;7.00
35654;PMS1003;21773;50.010;19.972;2023-07-24T12:34:24;8.00;7.40;6.00
35654;PMS1003;21773;50.010;19.972;2023-07-24T12:37:27;9.00;8.80;6.20
35654;PMS1003;21773;50.010;19.972;2023-07-24T12:40:31;8.00;8.00;7.00
35654;PMS1003;21773;50.010;19.972;2023-07-24T12:43:35;10.50;9.00;7.50
35654;PMS1003;21773;50.010;19.972;2023-07-24T12:46:39;10.00;9.00;8.00
35654;PMS1003;21773;50.010;19.972;2023-07-24T12:49:42;8.60;8.60;7.00
35654;PMS1003;21773;50.010;19.972;2023-07-24T12:52:45;8.25;7.00;5.50
35654;PMS1003;21773;50.010;19.972;2023-07-24T12:55:49;8.75;8.75;6.75
35654;PMS1003;21773;50.010;19.972;2023-07-24T12:58:54;8.00;7.40;6.40
35654;PMS1003;21773;50.010;19.972;2023-07-24T13:01:57;11.80;9.00;6.80
35654;PMS1003;21773;50.010;19.972;2023-07-24T13:05:00;9.20;8.00;7.00
35654;PMS1003;21773;50.010;19.972;2023-07-24T13:08:04;10.20;9.60;7.60
35654;PMS1003;21773;50.010;19.972;2023-07-24T13:11:07;11.00;10.00;8.00
35654;PMS1003;21773;50.010;19.972;2023-07-24T13:14:12;10.80;8.80;7.00
35654;PMS1003;21773;50.010;19.972;2023-07-24T13:17:15;8.75;7.75;6.75
35654;PMS1003;21773;50.010;19.972;2023-07-24T13:20:19;11.40;9.20;8.20
35654;PMS1003;21773;50.010;19.972;2023-07-24T13:23:22;11.80;10.80;8.80
35654;PMS1003;21773;50.010;19.972;2023-07-24T13:26:26;8.60;8.00;7.00
35654;PMS1003;21773;50.010;19.972;2023-07-24T13:29:31;12.00;10.00;8.00
35654;PMS1003;21773;50.010;19.972;2023-07-24T13:32:34;9.40;9.00;7.00
35654;PMS1003;21773;50.010;19.972;2023-07-24T13:35:37;9.00;8.00;6.60
35654;PMS1003;21773;50.010;19.972;2023-07-24T13:38:41;10.80;9.00;7.00
35654;PMS1003;21773;50.010;19.972;2023-07-24T13:41:44;10.00;9.00;7.00
35654;PMS1003;21773;50.010;19.972;2023-07-24T13:44:49;10.60;9.60;7.60
35654;PMS1003;21773;50.010;19.972;2023-07-24T13:47:52;11.00;10.00;8.40
35654;PMS1003;21773;50.010;19.972;2023-07-24T13:50:55;9.00;7.00;6.00
35654;PMS1003;21773;50.010;19.972;2023-07-24T13:53:59;10.00;9.00;7.40
35654;PMS1003;21773;50.010;19.972;2023-07-24T13:57:04;9.00;8.00;7.00
35654;PMS1003;21773;50.010;19.972;2023-07-24T14:00:11;9.00;8.00;6.00
35654;PMS1003;21773;50.010;19.972;2023-07-24T14:03:36;8.00;7.00;6.00
35654;PMS1003;21773;50.010;19.972;2023-07-24T14:06:39;9.00;8.00;7.00
35654;PMS1003;21773;50.010;19.972;2023-07-24T14:09:42;9.00;9.00;7.00
35654;PMS1003;21773;50.010;19.972;2023-07-24T14:12:45;11.00;8.75;7.00
35654;PMS1003;21773;50.010;19.972;2023-07-24T14:15:50;11.00;10.00;8.00
35654;PMS1003;21773;50.010;19.972;2023-07-24T14:18:54;9.00;8.00;7.00
35654;PMS1003;21773;50.010;19.972;2023-07-24T14:21:57;13.00;10.00;7.60
35654;PMS1003;21773;50.010;19.972;2023-07-24T14:25:00;9.00;8.00;6.00
35654;PMS1003;21773;50.010;19.972;2023-07-24T14:28:04;9.00;8.20;7.00
35654;PMS1003;21773;50.010;19.972;2023-07-24T14:31:08;11.00;9.50;7.25
35654;PMS1003;21773;50.010;19.972;2023-07-24T14:34:11;9.00;8.80;7.00
35654;PMS1003;21773;50.010;19.972;2023-07-24T14:37:14;10.20;9.80;7.00
35654;PMS1003;21773;50.010;19.972;2023-07-24T14:40:18;10.00;8.00;7.00
35654;PMS1003;21773;50.010;19.972;2023-07-24T14:43:21;8.40;8.00;6.00
35654;PMS1003;21773;50.010;19.972;2023-07-24T14:46:26;9.80;8.00;6.80
35654;PMS1003;21773;50.010;19.972;2023-07-24T14:49:30;13.00;10.00;8.00
35654;PMS1003;21773;50.010;19.972;2023-07-24T14:52:34;10.25;9.00;7.00
35654;PMS1003;21773;50.010;19.972;2023-07-24T14:55:37;14.75;12.75;9.75
35654;PMS1003;21773;50.010;19.972;2023-07-24T14:58:41;10.00;9.00;7.00
35654;PMS1003;21773;50.010;19.972;2023-07-24T15:01:48;8.00;8.00;6.00
35654;PMS1003;21773;50.010;19.972;2023-07-24T15:04:51;9.60;9.00;7.00
35654;PMS1003;21773;50.010;19.972;2023-07-24T15:07:55;11.25;11.00;9.00
35654;PMS1003;21773;50.010;19.972;2023-07-24T15:10:58;10.00;9.00;8.00
35654;PMS1003;21773;50.010;19.972;2023-07-24T15:14:01;11.40;9.00;7.00
35654;PMS1003;21773;50.010;19.972;2023-07-24T15:17:06;12.60;11.40;9.00
35654;PMS1003;21773;50.010;19.972;2023-07-24T15:20:09;12.75;11.00;9.75
35654;PMS1003;21773;50.010;19.972;2023-07-24T15:23:14;13.00;11.00;9.00
35654;PMS1003;21773;50.010;19.972;2023-07-24T15:26:19;12.60;11.60;10.00
35654;PMS1003;21773;50.010;19.972;2023-07-24T15:29:22;14.00;11.33;10.33
35654;PMS1003;21773;50.010;19.972;2023-07-24T15:32:27;11.20;10.20;9.00
35654;PMS1003;21773;50.010;19.972;2023-07-24T15:35:30;9.50;9.00;7.00
35654;PMS1003;21773;50.010;19.972;2023-07-24T15:38:34;12.25;10.25;8.00
35654;PMS1003;21773;50.010;19.972;2023-07-24T15:41:37;14.00;11.00;10.00
35654;PMS1003;21773;50.010;19.972;2023-07-24T15:44:40;14.00;13.00;9.00
35654;PMS1003;21773;50.010;19.972;2023-07-24T15:47:44;17.50;14.00;12.00
35654;PMS1003;21773;50.010;19.972;2023-07-24T15:50:48;14.50;13.00;12.00
35654;PMS1003;21773;50.010;19.972;2023-07-24T15:53:51;13.00;12.00;10.25
35654;PMS1003;21773;50.010;19.972;2023-07-24T15:56:54;14.40;13.00;11.00
35654;PMS1003;21773;50.010;19.972;2023-07-24T15:59:57;12.60;11.00;9.00
35654;PMS1003;21773;50.010;19.972;2023-07-24T16:03:02;12.60;11.00;9.00
35654;PMS1003;21773;50.010;19.972;2023-07-24T16:06:06;13.40;11.40;9.00
35654;PMS1003;21773;50.010;19.972;2023-07-24T16:09:11;14.00;14.00;12.00
35654;PMS1003;21773;50.010;19.972;2023-07-24T16:12:14;11.00;10.00;9.00
35654;PMS1003;21773;50.010;19.972;2023-07-24T16:15:17;16.00;14.00;11.00
35654;PMS1003;21773;50.010;19.972;2023-07-24T16:18:42;13.20;12.00;10.00
35654;PMS1003;21773;50.010;19.972;2023-07-24T16:21:47;12.00;11.00;9.00
35654;PMS1003;21773;50.010;19.972;2023-07-24T16:24:51;12.00;11.00;10.00
35654;PMS1003;21773;50.010;19.972;2023-07-24T16:27:54;9.80;9.00;7.40
35654;PMS1003;21773;50.010;19.972;2023-07-24T16:30:58;11.00;10.00;8.00
35654;PMS1003;21773;50.010;19.972;2023-07-24T16:34:03;11.40;11.00;9.00
35654;PMS1003;21773;50.010;19.972;2023-07-24T16:37:06;13.00;11.00;9.00
35654;PMS1003;21773;50.010;19.972;2023-07-24T16:40:11;12.00;11.00;9.80
35654;PMS1003;21773;50.010;19.972;2023-07-24T16:43:14;14.00;12.00;10.40
35654;PMS1003;21773;50.010;19.972;2023-07-24T16:46:17;12.00;11.00;9.40
35654;PMS1003;21773;50.010;19.972;2023-07-24T16:49:25;13.60;12.00;9.00
35654;PMS1003;21773;50.010;19.972;2023-07-24T16:52:28;12.00;12.00;10.00
35654;PMS1003;21773;50.010;19.972;2023-07-24T16:55:31;14.00;13.00;11.00
35654;PMS1003;21773;50.010;19.972;2023-07-24T16:58:34;15.00;12.00;10.00
35654;PMS1003;21773;50.010;19.972;2023-07-24T17:01:38;13.00;11.20;9.80
35654;PMS1003;21773;50.010;19.972;2023-07-24T17:04:42;12.25;11.25;10.00
35654;PMS1003;21773;50.010;19.972;2023-07-24T17:07:45;12.60;9.60;7.60
35654;PMS1003;21773;50.010;19.972;2023-07-24T17:10:49;14.20;12.20;9.20
35654;PMS1003;21773;50.010;19.972;2023-07-24T17:13:52;14.00;13.00;10.00
35654;PMS1003;21773;50.010;19.972;2023-07-24T17:16:56;14.60;12.00;10.00
35654;PMS1003;21773;50.010;19.972;2023-07-24T17:20:02;14.25;12.50;10.50
35654;PMS1003;21773;50.010;19.972;2023-07-24T17:23:07;15.00;14.00;11.00
35654;PMS1003;21773;50.010;19.972;2023-07-24T17:26:10;10.00;9.60;8.00
35654;PMS1003;21773;50.010;19.972;2023-07-24T17:29:13;12.20;11.00;8.60
35654;PMS1003;21773;50.010;19.972;2023-07-24T17:32:16;9.20;7.00;7.00
35654;PMS1003;21773;50.010;19.972;2023-07-24T17:35:21;9.40;8.00;7.40